sensor_id;sensor_type;location;lat;lon;timestamp;P1;durP1;ratioP1;P2;durP2;ratioP2
73428;SDS011;61643;49.564;17.412;2023-08-20T00:01:45;14.65;;;8.40;;
73428;SDS011;61643;49.564;17.412;2023-08-20T00:04:11;14.20;;;8.52;;
73428;SDS011;61643;49.564;17.412;2023-08-20T00:06:38;13.18;;;8.27;;
73428;SDS011;61643;49.564;17.412;2023-08-20T00:09:05;11.55;;;8.38;;
73428;SDS011;61643;49.564;17.412;2023-08-20T00:11:33;11.68;;;8.32;;
73428;SDS011;61643;49.564;17.412;2023-08-20T00:13:59;11.60;;;8.15;;
73428;SDS011;61643;49.564;17.412;2023-08-20T00:16:25;11.52;;;8.35;;
73428;SDS011;61643;49.564;17.412;2023-08-20T00:18:51;9.43;;;7.90;;
73428;SDS011;61643;49.564;17.412;2023-08-20T00:21:17;15.02;;;8.55;;
73428;SDS011;61643;49.564;17.412;2023-08-20T00:23:44;12.48;;;7.57;;
73428;SDS011;61643;49.564;17.412;2023-08-20T00:26:10;10.43;;;8.15;;
73428;SDS011;61643;49.564;17.412;2023-08-20T00:28:37;11.38;;;7.65;;
73428;SDS011;61643;49.564;17.412;2023-08-20T00:31:04;15.23;;;9.15;;
73428;SDS011;61643;49.564;17.412;2023-08-20T00:33:31;12.52;;;8.27;;
73428;SDS011;61643;49.564;17.412;2023-08-20T00:35:57;11.27;;;8.40;;
73428;SDS011;61643;49.564;17.412;2023-08-20T00:38:23;12.73;;;9.20;;
73428;SDS011;61643;49.564;17.412;2023-08-20T00:40:49;9.63;;;7.82;;
73428;SDS011;61643;49.564;17.412;2023-08-20T00:43:15;11.18;;;8.32;;
73428;SDS011;61643;49.564;17.412;2023-08-20T00:45:41;11.45;;;8.43;;
73428;SDS011;61643;49.564;17.412;2023-08-20T00:48:08;12.38;;;9.05;;
73428;SDS011;61643;49.564;17.412;2023-08-20T00:50:34;11.20;;;8.68;;
73428;SDS011;61643;49.564;17.412;2023-08-20T00:53:01;12.00;;;8.18;;
73428;SDS011;61643;49.564;17.412;2023-08-20T00:55:27;12.38;;;8.18;;
73428;SDS011;61643;49.564;17.412;2023-08-20T00:57:53;12.52;;;8.30;;
73428;SDS011;61643;49.564;17.412;2023-08-20T01:00:20;11.88;;;7.95;;
73428;SDS011;61643;49.564;17.412;2023-08-20T01:02:48;14.35;;;9.38;;
73428;SDS011;61643;49.564;17.412;2023-08-20T01:05:14;12.90;;;8.63;;
73428;SDS011;61643;49.564;17.412;2023-08-20T01:10:10;13.23;;;9.00;;
73428;SDS011;61643;49.564;17.412;2023-08-20T01:12:50;12.98;;;8.30;;
73428;SDS011;61643;49.564;17.412;2023-08-20T01:15:17;10.27;;;8.23;;
73428;SDS011;61643;49.564;17.412;2023-08-20T01:17:43;11.90;;;8.60;;
73428;SDS011;61643;49.564;17.412;2023-08-20T01:20:11;11.27;;;8.95;;
73428;SDS011;61643;49.564;17.412;2023-08-20T01:30:46;12.43;;;8.77;;
73428;SDS011;61643;49.564;17.412;2023-08-20T01:33:13;10.75;;;8.73;;
73428;SDS011;61643;49.564;17.412;2023-08-20T01:35:40;13.23;;;8.43;;
73428;SDS011;61643;49.564;17.412;2023-08-20T01:38:06;12.32;;;8.32;;
73428;SDS011;61643;49.564;17.412;2023-08-20T01:40:33;13.88;;;9.23;;
73428;SDS011;61643;49.564;17.412;2023-08-20T01:42:59;11.98;;;8.55;;
73428;SDS011;61643;49.564;17.412;2023-08-20T01:45:25;10.45;;;8.48;;
73428;SDS011;61643;49.564;17.412;2023-08-20T01:47:52;11.45;;;8.45;;
73428;SDS011;61643;49.564;17.412;2023-08-20T01:50:18;12.07;;;8.85;;
73428;SDS011;61643;49.564;17.412;2023-08-20T01:52:44;15.77;;;9.18;;
73428;SDS011;61643;49.564;17.412;2023-08-20T01:55:10;13.73;;;9.00;;
73428;SDS011;61643;49.564;17.412;2023-08-20T01:57:37;12.38;;;9.05;;
73428;SDS011;61643;49.564;17.412;2023-08-20T02:00:03;11.75;;;8.85;;
73428;SDS011;61643;49.564;17.412;2023-08-20T02:02:33;13.43;;;9.05;;
73428;SDS011;61643;49.564;17.412;2023-08-20T02:05:00;14.82;;;9.15;;
73428;SDS011;61643;49.564;17.412;2023-08-20T02:07:26;12.60;;;9.88;;
73428;SDS011;61643;49.564;17.412;2023-08-20T02:09:52;15.20;;;10.02;;
73428;SDS011;61643;49.564;17.412;2023-08-20T02:12:18;14.25;;;9.95;;
73428;SDS011;61643;49.564;17.412;2023-08-20T02:14:44;13.90;;;9.60;;
73428;SDS011;61643;49.564;17.412;2023-08-20T02:17:10;16.38;;;9.95;;
73428;SDS011;61643;49.564;17.412;2023-08-20T02:19:38;14.52;;;9.98;;
73428;SDS011;61643;49.564;17.412;2023-08-20T02:22:04;16.52;;;9.90;;
73428;SDS011;61643;49.564;17.412;2023-08-20T02:24:30;13.75;;;10.15;;
73428;SDS011;61643;49.564;17.412;2023-08-20T02:26:56;14.13;;;9.80;;
73428;SDS011;61643;49.564;17.412;2023-08-20T02:29:22;15.73;;;10.10;;
73428;SDS011;61643;49.564;17.412;2023-08-20T02:31:49;14.63;;;10.02;;
73428;SDS011;61643;49.564;17.412;2023-08-20T02:34:15;12.68;;;9.60;;
73428;SDS011;61643;49.564;17.412;2023-08-20T02:36:41;13.80;;;9.73;;
73428;SDS011;61643;49.564;17.412;2023-08-20T02:39:07;15.07;;;10.68;;
73428;SDS011;61643;49.564;17.412;2023-08-20T02:41:34;13.30;;;9.65;;
73428;SDS011;61643;49.564;17.412;2023-08-20T02:44:01;17.10;;;9.25;;
73428;SDS011;61643;49.564;17.412;2023-08-20T02:46:28;12.18;;;9.30;;
73428;SDS011;61643;49.564;17.412;2023-08-20T02:48:54;14.52;;;10.45;;
73428;SDS011;61643;49.564;17.412;2023-08-20T02:51:20;14.05;;;9.55;;
73428;SDS011;61643;49.564;17.412;2023-08-20T02:53:46;12.60;;;9.65;;
73428;SDS011;61643;49.564;17.412;2023-08-20T02:56:12;14.02;;;9.77;;
73428;SDS011;61643;49.564;17.412;2023-08-20T02:58:38;14.20;;;9.75;;
73428;SDS011;61643;49.564;17.412;2023-08-20T03:01:04;16.00;;;10.35;;
73428;SDS011;61643;49.564;17.412;2023-08-20T03:03:31;15.57;;;10.35;;
73428;SDS011;61643;49.564;17.412;2023-08-20T03:05:56;14.13;;;10.07;;
73428;SDS011;61643;49.564;17.412;2023-08-20T03:08:22;14.35;;;10.73;;
73428;SDS011;61643;49.564;17.412;2023-08-20T03:10:48;14.82;;;10.30;;
73428;SDS011;61643;49.564;17.412;2023-08-20T03:13:14;14.00;;;10.07;;
73428;SDS011;61643;49.564;17.412;2023-08-20T03:15:40;13.75;;;9.70;;
73428;SDS011;61643;49.564;17.412;2023-08-20T03:18:07;14.60;;;9.57;;
73428;SDS011;61643;49.564;17.412;2023-08-20T03:20:32;13.00;;;10.35;;
73428;SDS011;61643;49.564;17.412;2023-08-20T03:23:01;15.82;;;10.48;;
73428;SDS011;61643;49.564;17.412;2023-08-20T03:25:27;16.10;;;11.00;;
73428;SDS011;61643;49.564;17.412;2023-08-20T03:27:53;20.08;;;10.40;;
73428;SDS011;61643;49.564;17.412;2023-08-20T03:30:19;14.15;;;9.95;;
73428;SDS011;61643;49.564;17.412;2023-08-20T03:32:45;16.23;;;10.05;;
73428;SDS011;61643;49.564;17.412;2023-08-20T03:35:11;16.83;;;10.85;;
73428;SDS011;61643;49.564;17.412;2023-08-20T03:37:37;12.90;;;10.40;;
73428;SDS011;61643;49.564;17.412;2023-08-20T03:40:03;16.05;;;11.20;;
73428;SDS011;61643;49.564;17.412;2023-08-20T03:42:30;18.30;;;12.23;;
73428;SDS011;61643;49.564;17.412;2023-08-20T03:44:56;16.33;;;11.50;;
73428;SDS011;61643;49.564;17.412;2023-08-20T03:47:22;15.63;;;11.40;;
73428;SDS011;61643;49.564;17.412;2023-08-20T03:49:48;14.27;;;10.85;;
73428;SDS011;61643;49.564;17.412;2023-08-20T03:52:14;15.10;;;10.52;;
73428;SDS011;61643;49.564;17.412;2023-08-20T03:54:40;15.43;;;10.95;;
73428;SDS011;61643;49.564;17.412;2023-08-20T03:57:06;16.13;;;10.50;;
73428;SDS011;61643;49.564;17.412;2023-08-20T03:59:32;14.95;;;11.07;;
73428;SDS011;61643;49.564;17.412;2023-08-20T04:01:58;15.32;;;10.73;;
73428;SDS011;61643;49.564;17.412;2023-08-20T04:04:24;19.30;;;11.05;;
73428;SDS011;61643;49.564;17.412;2023-08-20T04:06:51;14.63;;;9.88;;
73428;SDS011;61643;49.564;17.412;2023-08-20T04:09:17;16.33;;;11.65;;
73428;SDS011;61643;49.564;17.412;2023-08-20T04:11:42;17.52;;;11.27;;
73428;SDS011;61643;49.564;17.412;2023-08-20T04:14:09;15.38;;;11.32;;
73428;SDS011;61643;49.564;17.412;2023-08-20T04:16:35;13.93;;;10.77;;
73428;SDS011;61643;49.564;17.412;2023-08-20T04:19:00;14.82;;;10.93;;
73428;SDS011;61643;49.564;17.412;2023-08-20T04:21:27;16.42;;;10.82;;
73428;SDS011;61643;49.564;17.412;2023-08-20T04:23:52;15.98;;;10.20;;
73428;SDS011;61643;49.564;17.412;2023-08-20T04:26:18;12.50;;;9.95;;
73428;SDS011;61643;49.564;17.412;2023-08-20T04:28:44;15.10;;;11.05;;
73428;SDS011;61643;49.564;17.412;2023-08-20T04:31:10;15.45;;;11.02;;
73428;SDS011;61643;49.564;17.412;2023-08-20T04:33:36;17.52;;;10.63;;
73428;SDS011;61643;49.564;17.412;2023-08-20T04:36:02;14.13;;;10.65;;
73428;SDS011;61643;49.564;17.412;2023-08-20T04:38:28;15.15;;;11.63;;
73428;SDS011;61643;49.564;17.412;2023-08-20T04:40:54;15.07;;;10.57;;
73428;SDS011;61643;49.564;17.412;2023-08-20T04:43:20;14.20;;;10.23;;
73428;SDS011;61643;49.564;17.412;2023-08-20T04:45:46;13.15;;;10.00;;
73428;SDS011;61643;49.564;17.412;2023-08-20T04:48:12;14.43;;;10.02;;
73428;SDS011;61643;49.564;17.412;2023-08-20T04:50:38;12.55;;;9.77;;
73428;SDS011;61643;49.564;17.412;2023-08-20T04:53:04;13.38;;;9.82;;
73428;SDS011;61643;49.564;17.412;2023-08-20T04:55:30;13.05;;;9.70;;
73428;SDS011;61643;49.564;17.412;2023-08-20T04:57:56;15.77;;;9.93;;
73428;SDS011;61643;49.564;17.412;2023-08-20T05:00:22;11.98;;;9.20;;
73428;SDS011;61643;49.564;17.412;2023-08-20T05:02:48;13.48;;;9.27;;
73428;SDS011;61643;49.564;17.412;2023-08-20T05:05:14;13.38;;;9.02;;
73428;SDS011;61643;49.564;17.412;2023-08-20T05:07:40;14.98;;;9.88;;
73428;SDS011;61643;49.564;17.412;2023-08-20T05:10:06;15.20;;;9.50;;
73428;SDS011;61643;49.564;17.412;2023-08-20T05:12:34;12.48;;;10.10;;
73428;SDS011;61643;49.564;17.412;2023-08-20T05:15:00;13.30;;;10.32;;
73428;SDS011;61643;49.564;17.412;2023-08-20T05:17:26;13.10;;;9.43;;
73428;SDS011;61643;49.564;17.412;2023-08-20T05:19:52;13.57;;;10.30;;
73428;SDS011;61643;49.564;17.412;2023-08-20T05:22:19;12.43;;;9.25;;
73428;SDS011;61643;49.564;17.412;2023-08-20T05:24:45;13.10;;;9.82;;
73428;SDS011;61643;49.564;17.412;2023-08-20T05:27:12;14.60;;;10.25;;
73428;SDS011;61643;49.564;17.412;2023-08-20T05:29:40;13.52;;;9.93;;
73428;SDS011;61643;49.564;17.412;2023-08-20T05:32:06;15.05;;;9.98;;
73428;SDS011;61643;49.564;17.412;2023-08-20T05:34:33;13.02;;;10.02;;
73428;SDS011;61643;49.564;17.412;2023-08-20T05:36:59;15.73;;;10.05;;
73428;SDS011;61643;49.564;17.412;2023-08-20T05:39:25;13.40;;;9.98;;
73428;SDS011;61643;49.564;17.412;2023-08-20T05:41:55;13.23;;;9.88;;
73428;SDS011;61643;49.564;17.412;2023-08-20T05:44:21;12.73;;;10.00;;
73428;SDS011;61643;49.564;17.412;2023-08-20T05:46:48;13.73;;;10.20;;
73428;SDS011;61643;49.564;17.412;2023-08-20T05:49:14;13.80;;;11.02;;
73428;SDS011;61643;49.564;17.412;2023-08-20T05:51:44;14.10;;;10.30;;
73428;SDS011;61643;49.564;17.412;2023-08-20T05:54:10;13.10;;;10.02;;
73428;SDS011;61643;49.564;17.412;2023-08-20T05:56:37;14.23;;;10.93;;
73428;SDS011;61643;49.564;17.412;2023-08-20T05:59:04;16.05;;;11.65;;
73428;SDS011;61643;49.564;17.412;2023-08-20T06:01:30;15.32;;;11.32;;
73428;SDS011;61643;49.564;17.412;2023-08-20T06:03:57;14.90;;;11.23;;
73428;SDS011;61643;49.564;17.412;2023-08-20T06:06:23;14.73;;;11.13;;
73428;SDS011;61643;49.564;17.412;2023-08-20T06:08:49;16.88;;;12.25;;
73428;SDS011;61643;49.564;17.412;2023-08-20T06:11:14;17.77;;;12.85;;
73428;SDS011;61643;49.564;17.412;2023-08-20T06:13:41;17.35;;;12.73;;
73428;SDS011;61643;49.564;17.412;2023-08-20T06:16:07;14.27;;;11.75;;
73428;SDS011;61643;49.564;17.412;2023-08-20T06:18:33;16.02;;;11.88;;
73428;SDS011;61643;49.564;17.412;2023-08-20T06:20:59;21.08;;;13.18;;
73428;SDS011;61643;49.564;17.412;2023-08-20T06:23:25;18.25;;;13.68;;
73428;SDS011;61643;49.564;17.412;2023-08-20T06:25:51;16.77;;;12.13;;
73428;SDS011;61643;49.564;17.412;2023-08-20T06:28:17;19.50;;;13.40;;
73428;SDS011;61643;49.564;17.412;2023-08-20T06:30:44;15.52;;;12.32;;
73428;SDS011;61643;49.564;17.412;2023-08-20T06:33:10;17.02;;;13.25;;
73428;SDS011;61643;49.564;17.412;2023-08-20T06:35:37;19.15;;;13.35;;
73428;SDS011;61643;49.564;17.412;2023-08-20T06:38:03;21.98;;;14.13;;
73428;SDS011;61643;49.564;17.412;2023-08-20T06:40:30;19.08;;;13.25;;
73428;SDS011;61643;49.564;17.412;2023-08-20T06:42:56;17.95;;;12.82;;
73428;SDS011;61643;49.564;17.412;2023-08-20T06:45:22;16.92;;;12.82;;
73428;SDS011;61643;49.564;17.412;2023-08-20T06:47:48;16.65;;;13.02;;
73428;SDS011;61643;49.564;17.412;2023-08-20T06:50:14;18.55;;;12.77;;
73428;SDS011;61643;49.564;17.412;2023-08-20T06:52:40;16.40;;;11.80;;
73428;SDS011;61643;49.564;17.412;2023-08-20T06:55:06;19.27;;;12.98;;
73428;SDS011;61643;49.564;17.412;2023-08-20T06:57:32;17.40;;;11.82;;
73428;SDS011;61643;49.564;17.412;2023-08-20T06:59:58;16.50;;;12.65;;
73428;SDS011;61643;49.564;17.412;2023-08-20T07:02:24;17.05;;;12.75;;
73428;SDS011;61643;49.564;17.412;2023-08-20T07:04:50;18.48;;;12.80;;
73428;SDS011;61643;49.564;17.412;2023-08-20T07:07:16;19.98;;;13.23;;
73428;SDS011;61643;49.564;17.412;2023-08-20T07:09:42;16.40;;;12.93;;
73428;SDS011;61643;49.564;17.412;2023-08-20T07:12:08;18.13;;;12.77;;
73428;SDS011;61643;49.564;17.412;2023-08-20T07:14:34;21.77;;;14.25;;
73428;SDS011;61643;49.564;17.412;2023-08-20T07:17:00;18.92;;;13.60;;
73428;SDS011;61643;49.564;17.412;2023-08-20T07:19:28;17.35;;;12.68;;
73428;SDS011;61643;49.564;17.412;2023-08-20T07:21:54;16.92;;;12.80;;
73428;SDS011;61643;49.564;17.412;2023-08-20T07:24:20;19.30;;;13.00;;
73428;SDS011;61643;49.564;17.412;2023-08-20T07:26:51;18.23;;;13.43;;
73428;SDS011;61643;49.564;17.412;2023-08-20T07:29:18;16.50;;;13.25;;
73428;SDS011;61643;49.564;17.412;2023-08-20T07:31:44;17.83;;;13.93;;
73428;SDS011;61643;49.564;17.412;2023-08-20T07:34:09;17.60;;;13.23;;
73428;SDS011;61643;49.564;17.412;2023-08-20T07:36:35;17.27;;;13.13;;
73428;SDS011;61643;49.564;17.412;2023-08-20T07:39:01;18.80;;;13.00;;
73428;SDS011;61643;49.564;17.412;2023-08-20T07:41:28;22.50;;;12.93;;
73428;SDS011;61643;49.564;17.412;2023-08-20T07:43:54;16.60;;;12.73;;
73428;SDS011;61643;49.564;17.412;2023-08-20T07:46:20;19.95;;;13.52;;
73428;SDS011;61643;49.564;17.412;2023-08-20T07:48:46;16.05;;;12.27;;
73428;SDS011;61643;49.564;17.412;2023-08-20T07:51:12;16.63;;;11.80;;
73428;SDS011;61643;49.564;17.412;2023-08-20T07:53:38;13.75;;;11.18;;
73428;SDS011;61643;49.564;17.412;2023-08-20T07:56:04;14.38;;;11.23;;
73428;SDS011;61643;49.564;17.412;2023-08-20T07:58:30;14.23;;;11.45;;
73428;SDS011;61643;49.564;17.412;2023-08-20T08:00:57;18.88;;;11.73;;
73428;SDS011;61643;49.564;17.412;2023-08-20T08:03:24;17.20;;;12.30;;
73428;SDS011;61643;49.564;17.412;2023-08-20T08:05:53;16.33;;;11.32;;
73428;SDS011;61643;49.564;17.412;2023-08-20T08:08:20;19.38;;;12.02;;
73428;SDS011;61643;49.564;17.412;2023-08-20T08:10:46;16.00;;;11.27;;
73428;SDS011;61643;49.564;17.412;2023-08-20T08:13:13;17.30;;;11.40;;
73428;SDS011;61643;49.564;17.412;2023-08-20T08:18:06;12.50;;;9.85;;
73428;SDS011;61643;49.564;17.412;2023-08-20T08:20:33;14.82;;;10.65;;
73428;SDS011;61643;49.564;17.412;2023-08-20T08:22:59;12.88;;;9.30;;
73428;SDS011;61643;49.564;17.412;2023-08-20T08:25:26;13.13;;;9.23;;
73428;SDS011;61643;49.564;17.412;2023-08-20T08:27:52;13.95;;;10.02;;
73428;SDS011;61643;49.564;17.412;2023-08-20T08:30:18;12.88;;;9.15;;
73428;SDS011;61643;49.564;17.412;2023-08-20T08:32:44;11.50;;;9.90;;
73428;SDS011;61643;49.564;17.412;2023-08-20T08:35:10;12.43;;;9.85;;
73428;SDS011;61643;49.564;17.412;2023-08-20T08:37:36;17.73;;;9.75;;
73428;SDS011;61643;49.564;17.412;2023-08-20T08:40:03;9.95;;;8.77;;
73428;SDS011;61643;49.564;17.412;2023-08-20T08:42:32;11.13;;;9.45;;
73428;SDS011;61643;49.564;17.412;2023-08-20T08:45:02;14.02;;;10.13;;
73428;SDS011;61643;49.564;17.412;2023-08-20T08:47:29;13.50;;;10.57;;
73428;SDS011;61643;49.564;17.412;2023-08-20T08:49:55;14.23;;;10.35;;
73428;SDS011;61643;49.564;17.412;2023-08-20T08:52:22;13.75;;;10.68;;
73428;SDS011;61643;49.564;17.412;2023-08-20T08:54:49;12.45;;;9.43;;
73428;SDS011;61643;49.564;17.412;2023-08-20T08:57:15;12.77;;;9.60;;
73428;SDS011;61643;49.564;17.412;2023-08-20T08:59:42;11.75;;;8.77;;
73428;SDS011;61643;49.564;17.412;2023-08-20T09:02:09;10.82;;;9.00;;
73428;SDS011;61643;49.564;17.412;2023-08-20T09:04:40;13.00;;;9.27;;
73428;SDS011;61643;49.564;17.412;2023-08-20T09:07:10;11.65;;;9.73;;
73428;SDS011;61643;49.564;17.412;2023-08-20T09:09:41;11.45;;;9.32;;
73428;SDS011;61643;49.564;17.412;2023-08-20T09:12:15;12.40;;;9.48;;
73428;SDS011;61643;49.564;17.412;2023-08-20T09:14:45;12.68;;;9.02;;
73428;SDS011;61643;49.564;17.412;2023-08-20T09:17:13;14.88;;;9.07;;
73428;SDS011;61643;49.564;17.412;2023-08-20T09:19:40;12.27;;;9.95;;
73428;SDS011;61643;49.564;17.412;2023-08-20T09:22:08;12.15;;;8.95;;
73428;SDS011;61643;49.564;17.412;2023-08-20T09:24:38;12.07;;;9.35;;
73428;SDS011;61643;49.564;17.412;2023-08-20T09:27:08;12.98;;;9.10;;
73428;SDS011;61643;49.564;17.412;2023-08-20T09:29:44;13.05;;;8.90;;
73428;SDS011;61643;49.564;17.412;2023-08-20T09:32:14;11.40;;;9.90;;
73428;SDS011;61643;49.564;17.412;2023-08-20T09:34:41;9.32;;;8.32;;
73428;SDS011;61643;49.564;17.412;2023-08-20T09:37:08;13.10;;;9.95;;
73428;SDS011;61643;49.564;17.412;2023-08-20T09:39:41;12.70;;;9.45;;
73428;SDS011;61643;49.564;17.412;2023-08-20T09:42:08;10.55;;;8.48;;
73428;SDS011;61643;49.564;17.412;2023-08-20T09:44:41;12.05;;;9.52;;
73428;SDS011;61643;49.564;17.412;2023-08-20T09:49:39;12.70;;;9.50;;
73428;SDS011;61643;49.564;17.412;2023-08-20T09:52:10;11.32;;;8.35;;
73428;SDS011;61643;49.564;17.412;2023-08-20T09:57:11;12.95;;;8.77;;
73428;SDS011;61643;49.564;17.412;2023-08-20T09:59:46;10.00;;;8.73;;
73428;SDS011;61643;49.564;17.412;2023-08-20T10:02:13;10.40;;;8.73;;
73428;SDS011;61643;49.564;17.412;2023-08-20T10:04:40;13.35;;;8.60;;
73428;SDS011;61643;49.564;17.412;2023-08-20T10:07:07;11.23;;;8.15;;
73428;SDS011;61643;49.564;17.412;2023-08-20T10:09:34;11.23;;;8.85;;
73428;SDS011;61643;49.564;17.412;2023-08-20T10:12:01;9.95;;;7.68;;
73428;SDS011;61643;49.564;17.412;2023-08-20T10:14:27;9.52;;;7.70;;
73428;SDS011;61643;49.564;17.412;2023-08-20T10:16:53;12.07;;;8.00;;
73428;SDS011;61643;49.564;17.412;2023-08-20T10:19:19;9.48;;;7.47;;
73428;SDS011;61643;49.564;17.412;2023-08-20T10:21:45;10.13;;;8.27;;
73428;SDS011;61643;49.564;17.412;2023-08-20T10:24:16;11.80;;;8.07;;
73428;SDS011;61643;49.564;17.412;2023-08-20T10:26:45;9.00;;;7.30;;
73428;SDS011;61643;49.564;17.412;2023-08-20T10:32:01;13.40;;;8.57;;
73428;SDS011;61643;49.564;17.412;2023-08-20T10:34:33;9.95;;;8.00;;
73428;SDS011;61643;49.564;17.412;2023-08-20T10:37:02;9.10;;;7.88;;
73428;SDS011;61643;49.564;17.412;2023-08-20T10:39:34;8.85;;;7.22;;
73428;SDS011;61643;49.564;17.412;2023-08-20T10:45:07;8.05;;;7.07;;
73428;SDS011;61643;49.564;17.412;2023-08-20T10:47:35;10.13;;;6.22;;
73428;SDS011;61643;49.564;17.412;2023-08-20T10:50:09;8.32;;;6.65;;
73428;SDS011;61643;49.564;17.412;2023-08-20T10:52:42;8.50;;;7.60;;
73428;SDS011;61643;49.564;17.412;2023-08-20T10:55:14;8.70;;;7.05;;
73428;SDS011;61643;49.564;17.412;2023-08-20T10:57:41;7.65;;;6.82;;
73428;SDS011;61643;49.564;17.412;2023-08-20T11:00:07;8.00;;;5.95;;
73428;SDS011;61643;49.564;17.412;2023-08-20T11:02:38;6.80;;;5.55;;
73428;SDS011;61643;49.564;17.412;2023-08-20T11:05:09;6.60;;;5.53;;
73428;SDS011;61643;49.564;17.412;2023-08-20T11:07:46;10.13;;;5.45;;
73428;SDS011;61643;49.564;17.412;2023-08-20T11:10:14;7.32;;;5.35;;
73428;SDS011;61643;49.564;17.412;2023-08-20T11:12:43;7.97;;;5.80;;
73428;SDS011;61643;49.564;17.412;2023-08-20T11:15:11;8.88;;;6.00;;
73428;SDS011;61643;49.564;17.412;2023-08-20T11:17:55;6.85;;;5.68;;
73428;SDS011;61643;49.564;17.412;2023-08-20T11:22:48;7.47;;;6.28;;
73428;SDS011;61643;49.564;17.412;2023-08-20T11:25:14;9.23;;;6.22;;
73428;SDS011;61643;49.564;17.412;2023-08-20T11:27:40;6.57;;;5.95;;
73428;SDS011;61643;49.564;17.412;2023-08-20T11:30:09;7.20;;;6.20;;
73428;SDS011;61643;49.564;17.412;2023-08-20T11:32:37;9.30;;;6.15;;
73428;SDS011;61643;49.564;17.412;2023-08-20T11:35:04;8.05;;;6.35;;
73428;SDS011;61643;49.564;17.412;2023-08-20T11:37:32;6.90;;;6.30;;
73428;SDS011;61643;49.564;17.412;2023-08-20T11:39:58;8.90;;;5.97;;
73428;SDS011;61643;49.564;17.412;2023-08-20T11:42:24;6.97;;;6.28;;
73428;SDS011;61643;49.564;17.412;2023-08-20T11:44:51;8.10;;;6.20;;
73428;SDS011;61643;49.564;17.412;2023-08-20T11:47:21;7.45;;;6.00;;
73428;SDS011;61643;49.564;17.412;2023-08-20T11:49:47;8.00;;;6.47;;
73428;SDS011;61643;49.564;17.412;2023-08-20T11:52:13;8.52;;;6.50;;
73428;SDS011;61643;49.564;17.412;2023-08-20T11:54:39;6.80;;;6.07;;
73428;SDS011;61643;49.564;17.412;2023-08-20T11:57:05;7.80;;;5.82;;
73428;SDS011;61643;49.564;17.412;2023-08-20T11:59:32;7.03;;;5.90;;
73428;SDS011;61643;49.564;17.412;2023-08-20T12:01:59;7.80;;;5.80;;
73428;SDS011;61643;49.564;17.412;2023-08-20T12:04:28;8.20;;;5.68;;
73428;SDS011;61643;49.564;17.412;2023-08-20T12:07:13;7.78;;;6.13;;
73428;SDS011;61643;49.564;17.412;2023-08-20T12:09:40;8.50;;;6.35;;
73428;SDS011;61643;49.564;17.412;2023-08-20T12:12:07;6.82;;;5.97;;
73428;SDS011;61643;49.564;17.412;2023-08-20T12:14:34;6.78;;;5.90;;
73428;SDS011;61643;49.564;17.412;2023-08-20T12:17:00;6.30;;;5.43;;
73428;SDS011;61643;49.564;17.412;2023-08-20T12:19:29;6.72;;;5.55;;
73428;SDS011;61643;49.564;17.412;2023-08-20T12:21:54;7.30;;;5.70;;
73428;SDS011;61643;49.564;17.412;2023-08-20T12:24:20;6.40;;;5.70;;
73428;SDS011;61643;49.564;17.412;2023-08-20T12:26:47;7.90;;;6.07;;
73428;SDS011;61643;49.564;17.412;2023-08-20T12:29:13;6.65;;;6.03;;
73428;SDS011;61643;49.564;17.412;2023-08-20T12:31:39;9.07;;;5.65;;
73428;SDS011;61643;49.564;17.412;2023-08-20T12:34:06;6.13;;;5.50;;
73428;SDS011;61643;49.564;17.412;2023-08-20T12:36:33;5.95;;;5.35;;
73428;SDS011;61643;49.564;17.412;2023-08-20T12:38:59;6.80;;;5.70;;
73428;SDS011;61643;49.564;17.412;2023-08-20T12:41:25;7.25;;;5.53;;
73428;SDS011;61643;49.564;17.412;2023-08-20T12:43:51;8.65;;;5.53;;
73428;SDS011;61643;49.564;17.412;2023-08-20T12:46:17;8.57;;;5.63;;
73428;SDS011;61643;49.564;17.412;2023-08-20T12:48:43;6.75;;;5.07;;
73428;SDS011;61643;49.564;17.412;2023-08-20T12:51:09;6.22;;;5.40;;
73428;SDS011;61643;49.564;17.412;2023-08-20T12:53:39;6.20;;;5.68;;
73428;SDS011;61643;49.564;17.412;2023-08-20T12:56:06;6.25;;;5.57;;
73428;SDS011;61643;49.564;17.412;2023-08-20T12:58:32;7.75;;;5.45;;
73428;SDS011;61643;49.564;17.412;2023-08-20T13:00:58;6.75;;;5.80;;
73428;SDS011;61643;49.564;17.412;2023-08-20T13:03:24;6.05;;;5.45;;
73428;SDS011;61643;49.564;17.412;2023-08-20T13:05:50;6.25;;;5.45;;
73428;SDS011;61643;49.564;17.412;2023-08-20T13:08:16;5.93;;;5.38;;
73428;SDS011;61643;49.564;17.412;2023-08-20T13:10:43;7.28;;;5.60;;
73428;SDS011;61643;49.564;17.412;2023-08-20T13:13:18;7.65;;;5.70;;
73428;SDS011;61643;49.564;17.412;2023-08-20T13:15:46;8.48;;;6.00;;
73428;SDS011;61643;49.564;17.412;2023-08-20T13:18:13;6.28;;;5.68;;
73428;SDS011;61643;49.564;17.412;2023-08-20T13:23:07;6.30;;;5.50;;
73428;SDS011;61643;49.564;17.412;2023-08-20T13:25:33;11.88;;;5.60;;
73428;SDS011;61643;49.564;17.412;2023-08-20T13:27:59;5.68;;;5.18;;
73428;SDS011;61643;49.564;17.412;2023-08-20T13:30:25;7.28;;;5.97;;
73428;SDS011;61643;49.564;17.412;2023-08-20T13:32:51;7.30;;;5.53;;
73428;SDS011;61643;49.564;17.412;2023-08-20T13:35:17;5.97;;;5.38;;
73428;SDS011;61643;49.564;17.412;2023-08-20T13:37:43;6.65;;;5.35;;
73428;SDS011;61643;49.564;17.412;2023-08-20T13:40:10;8.52;;;5.70;;
73428;SDS011;61643;49.564;17.412;2023-08-20T13:42:36;6.63;;;5.93;;
73428;SDS011;61643;49.564;17.412;2023-08-20T13:45:02;9.93;;;5.63;;
73428;SDS011;61643;49.564;17.412;2023-08-20T13:47:29;6.18;;;5.60;;
73428;SDS011;61643;49.564;17.412;2023-08-20T13:49:55;6.78;;;5.30;;
73428;SDS011;61643;49.564;17.412;2023-08-20T13:52:21;5.97;;;5.47;;
73428;SDS011;61643;49.564;17.412;2023-08-20T13:54:47;6.95;;;5.63;;
73428;SDS011;61643;49.564;17.412;2023-08-20T13:57:13;6.68;;;5.88;;
73428;SDS011;61643;49.564;17.412;2023-08-20T13:59:39;6.88;;;5.65;;
73428;SDS011;61643;49.564;17.412;2023-08-20T14:02:05;8.07;;;6.00;;
73428;SDS011;61643;49.564;17.412;2023-08-20T14:04:31;9.55;;;5.75;;
73428;SDS011;61643;49.564;17.412;2023-08-20T14:06:57;6.85;;;5.90;;
73428;SDS011;61643;49.564;17.412;2023-08-20T14:09:23;6.32;;;5.15;;
73428;SDS011;61643;49.564;17.412;2023-08-20T14:11:49;6.43;;;5.45;;
73428;SDS011;61643;49.564;17.412;2023-08-20T14:14:15;7.80;;;6.05;;
73428;SDS011;61643;49.564;17.412;2023-08-20T14:16:41;6.57;;;5.70;;
73428;SDS011;61643;49.564;17.412;2023-08-20T14:19:07;7.72;;;5.85;;
73428;SDS011;61643;49.564;17.412;2023-08-20T14:21:32;6.50;;;5.72;;
73428;SDS011;61643;49.564;17.412;2023-08-20T14:23:58;6.22;;;5.63;;
73428;SDS011;61643;49.564;17.412;2023-08-20T14:26:24;8.48;;;6.18;;
73428;SDS011;61643;49.564;17.412;2023-08-20T14:28:50;6.55;;;5.50;;
73428;SDS011;61643;49.564;17.412;2023-08-20T14:31:16;6.85;;;5.65;;
73428;SDS011;61643;49.564;17.412;2023-08-20T14:33:44;6.70;;;5.90;;
73428;SDS011;61643;49.564;17.412;2023-08-20T14:36:10;6.35;;;5.70;;
73428;SDS011;61643;49.564;17.412;2023-08-20T14:38:36;7.82;;;6.05;;
73428;SDS011;61643;49.564;17.412;2023-08-20T14:41:02;6.32;;;5.70;;
73428;SDS011;61643;49.564;17.412;2023-08-20T14:43:29;6.40;;;5.78;;
73428;SDS011;61643;49.564;17.412;2023-08-20T14:45:55;6.60;;;5.85;;
73428;SDS011;61643;49.564;17.412;2023-08-20T14:48:22;7.15;;;5.75;;